Time;durP1;ratioP1;P1;durP2;ratioP2;P2;SDS_P1;SDS_P2;PMS_P1;PMS_P2;Temp;Humidity;BMP_temperature;BMP_pressure;BME280_temperature;BME280_humidity;BME280_pressure;Samples;Min_cycle;Max_cycle;Signal;HPM_P1;HPM_P2
2023/09/18 00:01:47;;;;;;;16.13;13.05;;;;;;;18.96;100.00;100507.25;5051782;28;20021;-51
2023/09/18 00:04:12;;;;;;;14.13;12.68;;;;;;;18.97;100.00;100498.16;5049686;28;20033;-52
2023/09/18 00:06:38;;;;;;;15.05;12.80;;;;;;;18.96;100.00;100507.25;5053343;28;20021;-54
2023/09/18 00:09:03;;;;;;;13.95;12.50;;;;;;;18.94;100.00;100501.22;5050221;28;20041;-53
2023/09/18 00:11:28;;;;;;;14.75;12.38;;;;;;;18.95;100.00;100495.66;5056172;28;20533;-52
2023/09/18 00:13:54;;;;;;;13.52;12.02;;;;;;;18.93;100.00;100503.06;5050424;28;20069;-54
2023/09/18 00:16:19;;;;;;;14.57;12.15;;;;;;;18.92;100.00;100490.63;5050129;28;20025;-52
2023/09/18 00:18:44;;;;;;;14.73;12.38;;;;;;;18.93;100.00;100486.91;5053191;28;20038;-53
2023/09/18 00:21:11;;;;;;;13.15;11.82;;;;;;;18.94;100.00;100475.13;5050625;28;20029;-52
2023/09/18 00:23:37;;;;;;;14.20;12.00;;;;;;;18.94;100.00;100472.44;5051705;28;20029;-52
2023/09/18 00:26:03;;;;;;;13.68;11.95;;;;;;;18.95;100.00;100467.88;5050871;28;20112;-52
2023/09/18 00:28:28;;;;;;;12.75;11.20;;;;;;;18.94;100.00;100450.09;5050734;28;20119;-53
2023/09/18 00:30:53;;;;;;;14.05;11.00;;;;;;;18.93;100.00;100448.41;5048631;28;20033;-53
2023/09/18 00:33:19;;;;;;;13.90;11.53;;;;;;;18.95;100.00;100451.75;5047488;28;20033;-52
2023/09/18 00:35:51;;;;;;;12.85;10.82;;;;;;;18.96;100.00;100448.03;5049448;28;20295;-54
2023/09/18 00:38:17;;;;;;;14.07;10.55;;;;;;;18.95;100.00;100436.44;5058820;28;20059;-52
2023/09/18 00:40:42;;;;;;;12.32;10.43;;;;;;;18.97;100.00;100436.28;5050569;28;20048;-51
2023/09/18 00:43:10;;;;;;;15.15;11.10;;;;;;;18.98;100.00;100429.84;5045247;28;20120;-51
2023/09/18 00:45:39;;;;;;;11.80;10.60;;;;;;;18.97;100.00;100428.19;5050996;28;20036;-54
2023/09/18 00:48:05;;;;;;;13.95;10.70;;;;;;;18.96;100.00;100421.97;5047262;28;20025;-51
2023/09/18 00:50:31;;;;;;;11.38;10.18;;;;;;;18.96;100.00;100416.56;5046717;28;20025;-53
2023/09/18 00:52:56;;;;;;;10.93;9.85;;;;;;;18.95;100.00;100412.22;5053249;28;20075;-53
2023/09/18 00:55:22;;;;;;;15.25;9.70;;;;;;;18.97;100.00;100414.75;5053147;28;20029;-52
2023/09/18 00:57:47;;;;;;;11.65;9.80;;;;;;;18.97;100.00;100406.66;5045265;28;20099;-52
2023/09/18 01:00:17;;;;;;;11.13;9.13;;;;;;;18.98;100.00;100400.25;5052124;28;20025;-50
2023/09/18 01:02:43;;;;;;;14.00;9.65;;;;;;;18.98;100.00;100405.63;5054773;28;20021;-51
2023/09/18 01:05:08;;;;;;;18.58;9.77;;;;;;;18.98;100.00;100400.25;5049042;28;20456;-54
2023/09/18 01:07:34;;;;;;;11.07;9.18;;;;;;;18.97;100.00;100385.97;5048962;28;20384;-50
2023/09/18 01:09:59;;;;;;;13.38;9.52;;;;;;;18.98;100.00;100376.03;5054949;28;20112;-52
2023/09/18 01:12:31;;;;;;;14.20;9.75;;;;;;;18.98;100.00;100376.84;5047040;28;20071;-53
2023/09/18 01:15:06;;;;;;;10.13;8.52;;;;;;;19.00;100.00;100376.66;5050777;28;20021;-54
2023/09/18 01:17:38;;;;;;;15.02;9.10;;;;;;;19.03;100.00;100360.16;5047430;28;20025;-52
2023/09/18 01:20:05;;;;;;;9.43;8.43;;;;;;;19.05;100.00;100355.41;5043658;28;20033;-52
2023/09/18 01:22:32;;;;;;;15.35;8.88;;;;;;;19.04;100.00;100364.53;5056153;28;20367;-51
2023/09/18 01:24:57;;;;;;;12.02;8.98;;;;;;;19.04;100.00;100373.44;5053696;28;20154;-54
2023/09/18 01:27:23;;;;;;;12.75;9.18;;;;;;;19.05;100.00;100363.50;5057260;28;20504;-53
2023/09/18 01:29:49;;;;;;;12.20;8.63;;;;;;;19.07;100.00;100366.00;5052668;28;20036;-52
2023/09/18 01:32:15;;;;;;;11.13;7.82;;;;;;;19.07;100.00;100368.69;5044728;28;20050;-54
2023/09/18 01:34:53;;;;;;;8.98;7.75;;;;;;;19.03;100.00;100361.00;5049706;28;20036;-52
2023/09/18 01:37:25;;;;;;;10.52;7.72;;;;;;;19.06;100.00;100372.44;5047045;28;20053;-53
2023/09/18 01:39:51;;;;;;;8.60;7.68;;;;;;;19.09;100.00;100385.53;5046399;28;20384;-50
2023/09/18 01:42:17;;;;;;;9.50;7.68;;;;;;;19.11;100.00;100370.00;5050620;28;20483;-50
2023/09/18 01:44:43;;;;;;;14.10;7.78;;;;;;;19.12;100.00;100374.34;5049547;28;20052;-51
2023/09/18 01:47:13;;;;;;;12.80;7.88;;;;;;;19.10;100.00;100379.09;5046032;28;20458;-51
2023/09/18 01:49:39;;;;;;;8.45;7.50;;;;;;;19.10;100.00;100381.78;5040566;28;20547;-51
2023/09/18 01:52:06;;;;;;;11.32;7.63;;;;;;;19.11;100.00;100370.00;5051994;28;20552;-51
2023/09/18 01:54:33;;;;;;;11.48;7.45;;;;;;;19.11;100.00;100370.84;5046374;28;20063;-50
2023/09/18 01:56:58;;;;;;;9.38;7.07;;;;;;;19.12;100.00;100358.22;5049608;28;20017;-52
2023/09/18 01:59:24;;;;;;;13.73;7.50;;;;;;;19.12;100.00;100356.38;5058564;28;20021;-51
2023/09/18 02:01:50;;;;;;;10.48;7.30;;;;;;;19.10;100.00;100354.88;5049889;28;20044;-52
2023/09/18 02:04:16;;;;;;;12.88;7.32;;;;;;;19.11;100.00;100361.94;5046320;28;20037;-52
2023/09/18 02:06:42;;;;;;;14.07;7.43;;;;;;;19.08;100.00;100352.34;5051617;28;20063;-53
2023/09/18 02:09:08;;;;;;;12.15;7.53;;;;;;;19.07;100.00;100353.41;5046550;28;20472;-50
2023/09/18 02:11:42;;;;;;;12.27;7.28;;;;;;;19.08;100.00;100355.06;5047096;28;20029;-52
2023/09/18 02:14:09;;;;;;;10.88;7.47;;;;;;;19.06;100.00;100356.28;5051132;28;20036;-52
2023/09/18 02:16:36;;;;;;;13.43;7.15;;;;;;;19.08;100.00;100359.63;5051274;28;20081;-51
2023/09/18 02:19:04;;;;;;;13.70;7.38;;;;;;;19.08;100.00;100351.53;5051808;28;20029;-50
2023/09/18 02:21:30;;;;;;;11.20;6.75;;;;;;;19.09;100.00;100347.84;5056432;28;20071;-51
2023/09/18 02:23:56;;;;;;;9.30;6.50;;;;;;;19.10;100.00;100330.66;5050400;28;20021;-51
2023/09/18 02:26:23;;;;;;;15.88;7.25;;;;;;;19.10;100.00;100328.81;5052327;28;20525;-51
2023/09/18 02:28:49;;;;;;;9.07;6.38;;;;;;;19.10;100.00;100326.13;5054511;28;20060;-54
2023/09/18 02:31:14;;;;;;;11.18;6.40;;;;;;;19.10;100.00;100317.19;5049148;28;20537;-53
2023/09/18 02:33:40;;;;;;;12.02;6.82;;;;;;;19.09;100.00;100316.34;5045937;28;20033;-54
2023/09/18 02:36:06;;;;;;;9.40;6.15;;;;;;;19.07;100.00;100309.47;5039589;28;20025;-52
2023/09/18 02:38:33;;;;;;;10.50;7.05;;;;;;;19.06;100.00;100310.53;5037529;28;20025;-53
2023/09/18 02:40:58;;;;;;;12.25;7.10;;;;;;;19.03;100.00;100311.72;5042624;28;20057;-52
2023/09/18 02:43:24;;;;;;;13.38;6.97;;;;;;;19.03;100.00;100304.50;5047450;28;20068;-51
2023/09/18 02:45:50;;;;;;;11.20;6.55;;;;;;;19.03;100.00;100295.56;5042575;28;20036;-53
2023/09/18 02:48:16;;;;;;;10.27;6.28;;;;;;;19.00;100.00;100285.16;5044162;28;20025;-53
2023/09/18 02:50:41;;;;;;;12.68;6.65;;;;;;;18.99;100.00;100292.41;5047436;28;20083;-53
2023/09/18 02:53:08;;;;;;;12.53;6.77;;;;;;;18.97;100.00;100283.69;5039503;28;20436;-51
2023/09/18 02:55:34;;;;;;;11.85;5.93;;;;;;;18.99;100.00;100288.91;5046946;28;20792;-53
2023/09/18 02:57:59;;;;;;;14.52;6.38;;;;;;;18.99;100.00;100288.91;5044917;28;20029;-51
2023/09/18 03:00:25;;;;;;;10.45;7.15;;;;;;;18.97;100.00;100262.16;5051551;28;20032;-50
2023/09/18 03:02:50;;;;;;;17.73;7.07;;;;;;;18.99;100.00;100249.34;5047670;28;20108;-51
2023/09/18 03:05:15;;;;;;;11.98;6.28;;;;;;;18.98;100.00;100258.44;5053693;28;20414;-52
2023/09/18 03:07:41;;;;;;;15.85;6.57;;;;;;;18.98;100.00;100241.47;5050411;28;20483;-54
2023/09/18 03:10:07;;;;;;;10.27;6.35;;;;;;;18.98;100.00;100236.09;5042363;28;20360;-51
2023/09/18 03:12:33;;;;;;;14.13;6.95;;;;;;;18.97;100.00;100237.94;5046483;28;20053;-52
2023/09/18 03:14:58;;;;;;;12.02;6.57;;;;;;;18.97;100.00;100246.03;5047946;28;20033;-52
2023/09/18 03:17:24;;;;;;;12.63;6.50;;;;;;;18.96;100.00;100241.66;5045227;28;20045;-53
2023/09/18 03:19:49;;;;;;;14.77;6.32;;;;;;;18.96;100.00;100238.97;5055074;28;20078;-51
2023/09/18 03:22:15;;;;;;;12.23;6.45;;;;;;;18.96;100.00;100247.03;5052843;28;20407;-52
2023/09/18 03:24:40;;;;;;;13.15;6.57;;;;;;;18.97;100.00;100242.50;5050916;28;20135;-54
2023/09/18 03:27:05;;;;;;;11.75;6.95;;;;;;;18.96;100.00;100243.50;5048163;28;20029;-50
2023/09/18 03:29:31;;;;;;;10.63;5.95;;;;;;;18.96;100.00;100249.72;5053163;28;20035;-54
2023/09/18 03:31:58;;;;;;;15.73;6.90;;;;;;;18.96;100.00;100255.09;5046238;28;20111;-52
2023/09/18 03:34:26;;;;;;;11.75;6.95;;;;;;;18.93;100.00;100268.09;5043795;28;20083;-53
2023/09/18 03:36:51;;;;;;;12.30;6.78;;;;;;;18.95;100.00;100269.59;5050661;28;20047;-51
2023/09/18 03:39:16;;;;;;;15.98;7.00;;;;;;;18.97;100.00;100267.56;5050805;28;20025;-53
2023/09/18 03:41:42;;;;;;;18.52;6.82;;;;;;;19.00;100.00;100256.41;5052211;28;20411;-54
2023/09/18 03:44:07;;;;;;;10.95;6.53;;;;;;;19.01;100.00;100254.56;5041587;28;20495;-52
2023/09/18 03:46:32;;;;;;;15.27;7.68;;;;;;;19.00;100.00;100275.25;5037818;28;20036;-53
2023/09/18 03:48:58;;;;;;;15.75;6.90;;;;;;;19.00;100.00;100275.25;5049047;28;20036;-54
2023/09/18 03:51:23;;;;;;;10.70;7.45;;;;;;;19.00;100.00;100258.25;5050331;28;20108;-51
2023/09/18 03:53:48;;;;;;;11.48;6.72;;;;;;;19.00;100.00;100264.50;5050045;28;20067;-53
2023/09/18 03:56:14;;;;;;;14.93;6.75;;;;;;;19.01;100.00;100258.06;5053927;28;20550;-54
2023/09/18 03:58:39;;;;;;;13.18;6.90;;;;;;;19.00;100.00;100258.25;5051346;28;20663;-50
2023/09/18 04:01:04;;;;;;;15.20;7.53;;;;;;;19.01;100.00;100271.53;5041200;28;20037;-54
2023/09/18 04:03:30;;;;;;;13.13;7.88;;;;;;;19.00;100.00;100277.94;5049581;28;20021;-53
2023/09/18 04:05:55;;;;;;;15.18;7.65;;;;;;;19.00;100.00;100293.25;5047319;28;20026;-51
2023/09/18 04:08:20;;;;;;;11.82;7.45;;;;;;;19.00;100.00;100294.09;5048239;28;20027;-53
2023/09/18 04:10:46;;;;;;;13.63;7.43;;;;;;;18.99;100.00;100286.22;5043268;28;20032;-52
2023/09/18 04:13:12;;;;;;;15.02;7.75;;;;;;;18.97;100.00;100277.50;5046607;28;20441;-51
2023/09/18 04:15:37;;;;;;;14.70;7.35;;;;;;;18.96;100.00;100267.75;5042809;28;20025;-53
2023/09/18 04:18:06;;;;;;;12.02;7.28;;;;;;;18.97;100.00;100278.31;5047543;28;20025;-52
2023/09/18 04:20:31;;;;;;;12.57;7.32;;;;;;;18.97;100.00;100275.63;5050902;28;20069;-51
2023/09/18 04:23:23;;;;;;;15.02;8.52;;;;;;;18.98;100.00;100255.75;5046789;28;20521;-53
2023/09/18 04:25:50;;;;;;;13.20;7.95;;;;;;;18.96;100.00;100246.22;5044710;28;20383;-53
2023/09/18 04:28:17;;;;;;;16.80;8.32;;;;;;;18.95;100.00;100247.22;5046162;28;20021;-53
2023/09/18 04:30:42;;;;;;;12.75;7.60;;;;;;;18.94;100.00;100250.94;5045671;28;20097;-50
2023/09/18 04:33:07;;;;;;;12.80;7.88;;;;;;;18.95;100.00;100249.91;5047379;28;20498;-51
2023/09/18 04:35:33;;;;;;;13.63;7.93;;;;;;;18.95;100.00;100245.38;5052286;28;20067;-50
2023/09/18 04:37:59;;;;;;;15.23;8.48;;;;;;;18.95;100.00;100231.94;5050813;28;20448;-50
2023/09/18 04:40:26;;;;;;;15.75;8.68;;;;;;;18.94;100.00;100213.28;5050120;28;20501;-50
2023/09/18 04:42:52;;;;;;;11.82;8.50;;;;;;;18.93;100.00;100208.91;5050636;28;20517;-50
2023/09/18 04:45:17;;;;;;;12.43;7.88;;;;;;;18.91;100.00;100198.31;5041481;28;20031;-51
2023/09/18 04:47:42;;;;;;;12.90;7.93;;;;;;;18.91;100.00;100197.50;5045190;28;20026;-51
2023/09/18 04:50:08;;;;;;;20.67;8.43;;;;;;;18.90;100.00;100193.97;5051027;28;20283;-50
2023/09/18 04:52:34;;;;;;;15.35;9.02;;;;;;;18.88;100.00;100182.56;5051448;28;20302;-53
2023/09/18 04:54:59;;;;;;;17.40;8.90;;;;;;;18.89;100.00;100186.94;5048564;28;20064;-51
2023/09/18 04:57:24;;;;;;;15.05;8.25;;;;;;;18.83;100.00;100184.97;5055337;28;20033;-50
2023/09/18 04:59:50;;;;;;;16.55;9.27;;;;;;;18.87;100.00;100183.59;5056605;28;20455;-50
2023/09/18 05:02:16;;;;;;;12.60;8.45;;;;;;;18.84;100.00;100182.09;5052455;28;20040;-50
2023/09/18 05:04:41;;;;;;;13.82;8.18;;;;;;;18.83;100.00;100184.97;5048689;28;20031;-51
2023/09/18 05:07:06;;;;;;;12.02;8.55;;;;;;;18.81;100.00;100174.38;5048016;28;20029;-51
2023/09/18 05:09:32;;;;;;;13.40;8.70;;;;;;;18.81;100.00;100184.31;5048392;28;20045;-53
2023/09/18 05:11:58;;;;;;;12.57;8.50;;;;;;;18.79;100.00;100178.28;5047282;28;20701;-53
2023/09/18 05:14:23;;;;;;;12.32;8.63;;;;;;;18.76;100.00;100179.47;5048182;28;20453;-51
2023/09/18 05:16:48;;;;;;;12.50;8.25;;;;;;;18.77;100.00;100193.75;5047268;28;20037;-53
2023/09/18 05:19:14;;;;;;;11.43;7.93;;;;;;;18.74;100.00;100199.53;5046695;28;20075;-53
2023/09/18 05:21:39;;;;;;;7.88;6.80;;;;;;;18.73;100.00;100200.53;5052680;28;20106;-51
2023/09/18 05:24:04;;;;;;;8.15;6.28;;;;;;;18.69;100.00;100200.09;5046764;28;20017;-52
2023/09/18 05:26:30;;;;;;;7.95;5.57;;;;;;;18.66;100.00;100203.97;5052192;28;20063;-52
2023/09/18 05:28:56;;;;;;;7.28;5.25;;;;;;;18.66;100.00;100205.84;5054479;28;20021;-52
2023/09/18 05:31:21;;;;;;;10.50;5.22;;;;;;;18.63;100.00;100193.59;5056843;28;20502;-51
2023/09/18 05:33:47;;;;;;;7.68;4.50;;;;;;;18.61;100.00;100195.63;5048580;28;20033;-51
2023/09/18 05:36:14;;;;;;;7.80;4.53;;;;;;;18.59;100.00;100186.91;5050453;28;20029;-54
2023/09/18 05:38:39;;;;;;;6.57;4.05;;;;;;;18.60;100.00;100195.81;5051690;28;20029;-53
2023/09/18 05:41:05;;;;;;;5.38;3.75;;;;;;;18.59;100.00;100202.22;5051776;28;20040;-49
2023/09/18 05:43:30;;;;;;;5.28;3.60;;;;;;;18.57;100.00;100198.88;5048483;28;20053;-50
2023/09/18 05:45:56;;;;;;;7.93;3.78;;;;;;;18.55;100.00;100204.47;5045444;28;20471;-52
2023/09/18 05:48:21;;;;;;;5.70;3.10;;;;;;;18.54;100.00;100205.47;5037962;28;20028;-50
2023/09/18 05:50:47;;;;;;;6.50;2.95;;;;;;;18.52;100.00;100220.97;5040507;28;20379;-58
2023/09/18 05:53:13;;;;;;;6.53;3.10;;;;;;;18.51;100.00;100219.28;5047763;28;20119;-50
2023/09/18 05:55:38;;;;;;;8.00;2.70;;;;;;;18.50;100.00;100225.66;5049012;28;20386;-49
2023/09/18 05:58:06;;;;;;;6.38;2.33;;;;;;;18.49;100.00;100226.72;5044789;28;20102;-50
2023/09/18 06:00:32;;;;;;;7.95;2.60;;;;;;;18.48;100.00;100231.25;5043319;28;20036;-50
2023/09/18 06:02:58;;;;;;;4.03;2.53;;;;;;;18.48;100.00;100230.41;5048686;28;20029;-50
2023/09/18 06:05:24;;;;;;;2.25;2.00;;;;;;;18.45;100.00;100239.69;5048425;28;20033;-50
2023/09/18 06:07:50;;;;;;;2.60;2.15;;;;;;;18.43;100.00;100227.44;5042457;28;20045;-50
2023/09/18 06:10:17;;;;;;;4.93;2.30;;;;;;;18.44;100.00;100232.63;5050490;28;20437;-50
2023/09/18 06:12:44;;;;;;;5.57;1.90;;;;;;;18.43;100.00;100233.63;5052850;28;20083;-50
2023/09/18 06:15:10;;;;;;;4.93;2.30;;;;;;;18.41;100.00;100240.22;5048901;28;20025;-49
2023/09/18 06:17:43;;;;;;;3.85;2.20;;;;;;;18.40;100.00;100234.03;5056103;28;20025;-52
2023/09/18 06:20:10;;;;;;;5.50;2.38;;;;;;;18.37;100.00;100244.28;5055680;28;20116;-50
2023/09/18 06:22:40;;;;;;;5.18;1.95;;;;;;;18.36;100.00;100237.25;5046669;28;20037;-50
2023/09/18 06:25:06;;;;;;;4.55;2.15;;;;;;;18.37;100.00;100241.59;5041415;28;20033;-50
2023/09/18 06:27:36;;;;;;;4.68;2.28;;;;;;;18.36;100.00;100258.78;5038823;28;20498;-50
2023/09/18 06:30:02;;;;;;;3.95;2.03;;;;;;;18.35;100.00;100247.16;5044477;28;20034;-50
2023/09/18 06:32:28;;;;;;;3.55;2.30;;;;;;;18.34;100.00;100248.19;5040217;28;20443;-49
2023/09/18 06:34:53;;;;;;;6.07;1.92;;;;;;;18.34;100.00;100242.81;5037617;28;20057;-49
2023/09/18 06:37:18;;;;;;;2.85;1.90;;;;;;;18.34;100.00;100247.38;5044329;28;20033;-50
2023/09/18 06:39:44;;;;;;;3.38;2.10;;;;;;;18.35;100.00;100262.47;5044879;28;20033;-50
2023/09/18 06:42:09;;;;;;;6.82;2.55;;;;;;;18.35;100.00;100267.84;5041126;28;20025;-50
2023/09/18 06:44:35;;;;;;;6.03;2.47;;;;;;;18.37;100.00;100268.50;5039928;28;20060;-49
2023/09/18 06:47:00;;;;;;;4.45;2.13;;;;;;;18.38;100.00;100267.47;5042390;28;20028;-50
2023/09/18 06:49:25;;;;;;;4.85;2.10;;;;;;;18.41;100.00;100273.31;5043395;28;20499;-50
2023/09/18 06:51:50;;;;;;;7.95;2.30;;;;;;;18.42;100.00;100271.50;5049985;28;21110;-50
2023/09/18 06:54:16;;;;;;;3.25;2.10;;;;;;;18.42;100.00;100280.38;5046924;28;20025;-49
2023/09/18 06:56:44;;;;;;;3.25;2.00;;;;;;;18.47;100.00;100296.81;5049280;28;20020;-50
2023/09/18 06:59:09;;;;;;;6.72;2.20;;;;;;;18.48;100.00;100289.56;5040583;28;20091;-50
2023/09/18 07:01:34;;;;;;;2.72;2.08;;;;;;;18.51;100.00;100291.06;5048372;28;20498;-50
2023/09/18 07:03:59;;;;;;;3.75;2.00;;;;;;;18.53;100.00;100299.78;5048061;28;20101;-50
2023/09/18 07:06:25;;;;;;;3.85;2.20;;;;;;;18.54;100.00;100288.84;5042680;28;20037;-49
2023/09/18 07:08:51;;;;;;;4.55;1.83;;;;;;;18.55;100.00;100278.91;5041437;28;20034;-50
2023/09/18 07:11:17;;;;;;;3.08;2.38;;;;;;;18.55;100.00;100292.34;5042225;28;20666;-49
2023/09/18 07:13:43;;;;;;;2.53;2.05;;;;;;;18.55;100.00;100298.59;5054191;28;20078;-50
2023/09/18 07:16:09;;;;;;;4.82;2.33;;;;;;;18.57;100.00;100290.31;5050212;28;20116;-50
2023/09/18 07:18:34;;;;;;;5.22;1.90;;;;;;;18.59;100.00;100283.75;5048814;28;20112;-51
2023/09/18 07:20:59;;;;;;;5.75;2.00;;;;;;;18.60;100.00;100298.88;5053949;28;20032;-50
2023/09/18 07:23:25;;;;;;;5.32;1.98;;;;;;;18.60;100.00;100293.50;5045967;28;20410;-49
2023/09/18 07:25:50;;;;;;;5.43;2.22;;;;;;;18.62;100.00;100296.84;5038039;28;20029;-50
2023/09/18 07:28:17;;;;;;;2.67;1.80;;;;;;;18.61;100.00;100287.06;5032800;28;20026;-50
2023/09/18 07:30:43;;;;;;;7.07;2.30;;;;;;;18.65;100.00;100309.06;5044127;28;20021;-49
2023/09/18 07:33:10;;;;;;;5.03;2.38;;;;;;;18.66;100.00;100311.56;5040097;28;20032;-50
2023/09/18 07:35:35;;;;;;;2.00;1.80;;;;;;;18.70;100.00;100303.97;5045447;28;20499;-50
2023/09/18 07:38:00;;;;;;;4.68;2.30;;;;;;;18.74;100.00;100305.28;5036034;28;20024;-50
2023/09/18 07:40:26;;;;;;;3.85;2.22;;;;;;;18.74;100.00;100307.16;5044634;28;20044;-52
2023/09/18 07:42:51;;;;;;;5.22;2.53;;;;;;;18.78;100.00;100316.50;5045185;28;20099;-50
2023/09/18 07:45:17;;;;;;;4.95;2.20;;;;;;;18.78;100.00;100313.81;5044593;28;20040;-52
2023/09/18 07:47:43;;;;;;;3.08;2.40;;;;;;;18.79;100.00;100313.63;5040512;28;20021;-50
2023/09/18 07:50:09;;;;;;;6.32;2.40;;;;;;;18.86;100.00;100316.44;5044012;28;20348;-49
2023/09/18 07:52:34;;;;;;;2.80;1.85;;;;;;;18.88;100.00;100309.03;5047657;28;20040;-49
2023/09/18 07:54:59;;;;;;;4.70;2.22;;;;;;;18.94;100.00;100313.66;5041483;28;20013;-50
2023/09/18 07:57:27;;;;;;;3.22;1.95;;;;;;;18.95;100.00;100306.41;5039882;28;20040;-49
2023/09/18 07:59:53;;;;;;;3.95;2.03;;;;;;;19.00;100.00;100299.47;5042638;28;20029;-50
2023/09/18 08:02:19;;;;;;;4.60;2.15;;;;;;;19.00;100.00;100295.94;5045758;28;20502;-50
2023/09/18 08:04:44;;;;;;;2.50;1.85;;;;;;;19.01;100.00;100295.75;5045608;28;20071;-50
2023/09/18 08:07:10;;;;;;;5.22;2.20;;;;;;;19.03;100.00;100301.81;5048208;28;20029;-50
2023/09/18 08:09:36;;;;;;;6.00;2.63;;;;;;;19.06;100.00;100324.81;5052348;28;20044;-52
2023/09/18 08:12:02;;;;;;;5.63;1.90;;;;;;;19.06;100.00;100327.50;5051029;28;20025;-49
2023/09/18 08:14:27;;;;;;;3.80;1.70;;;;;;;19.09;100.00;100320.91;5046784;28;20059;-50
2023/09/18 08:16:57;;;;;;;5.05;1.92;;;;;;;19.12;100.00;100315.13;5042915;28;20122;-50
2023/09/18 08:19:23;;;;;;;3.08;1.98;;;;;;;19.14;100.00;100316.63;5042373;28;20029;-50
2023/09/18 08:21:48;;;;;;;6.60;2.42;;;;;;;19.20;100.00;100329.34;5047612;28;20027;-51
2023/09/18 08:24:14;;;;;;;3.67;2.00;;;;;;;19.25;100.00;100320.69;5045092;28;20029;-51
2023/09/18 08:26:39;;;;;;;4.07;2.15;;;;;;;19.38;100.00;100328.13;5050333;28;20027;-51
2023/09/18 08:29:04;;;;;;;4.07;1.90;;;;;;;19.47;100.00;100332.38;5043975;28;20025;-51
2023/09/18 08:31:31;;;;;;;5.03;1.90;;;;;;;19.61;100.00;100344.16;5047867;28;20611;-51
2023/09/18 08:33:57;;;;;;;2.72;1.80;;;;;;;19.75;100.00;100339.75;5049682;28;20025;-51
2023/09/18 08:36:22;;;;;;;5.78;2.33;;;;;;;19.85;100.00;100355.63;5053722;28;20127;-51
2023/09/18 08:38:47;;;;;;;5.22;1.98;;;;;;;19.90;100.00;100353.19;5054891;28;20031;-53
2023/09/18 08:41:14;;;;;;;2.83;1.75;;;;;;;20.01;100.00;100354.56;5051047;28;20029;-51
2023/09/18 08:43:42;;;;;;;6.28;2.17;;;;;;;20.14;100.00;100358.22;5045018;28;20045;-51
2023/09/18 08:46:08;;;;;;;8.35;2.33;;;;;;;20.25;100.00;100373.06;5046430;28;20028;-51
2023/09/18 08:48:35;;;;;;;2.90;1.60;;;;;;;20.40;100.00;100359.53;5047034;28;20028;-53
2023/09/18 08:51:04;;;;;;;2.95;1.70;;;;;;;20.56;100.00;100357.56;5042130;28;20071;-52
2023/09/18 08:53:35;;;;;;;2.92;1.95;;;;;;;20.79;100.00;100357.38;5048651;28;20086;-53
2023/09/18 08:56:03;;;;;;;3.72;2.00;;;;;;;20.85;99.11;100359.25;5022542;28;20029;-51
2023/09/18 08:58:35;;;;;;;6.32;1.90;;;;;;;21.05;97.97;100354.03;5044497;28;20036;-51
2023/09/18 09:01:03;;;;;;;5.07;1.95;;;;;;;21.17;96.50;100351.59;5044383;28;20039;-52
2023/09/18 09:03:29;;;;;;;5.30;2.10;;;;;;;21.29;95.62;100349.16;5040442;28;20034;-54
2023/09/18 09:05:55;;;;;;;8.65;2.10;;;;;;;21.53;96.16;100353.22;5046310;28;20376;-51
2023/09/18 09:08:20;;;;;;;3.85;1.75;;;;;;;21.70;94.26;100354.56;5045409;28;20026;-51
2023/09/18 09:10:46;;;;;;;5.43;1.98;;;;;;;21.81;91.76;100358.53;5053321;28;20024;-53
2023/09/18 09:13:13;;;;;;;7.15;2.47;;;;;;;21.96;91.41;100350.25;5044854;28;20060;-52
2023/09/18 09:15:46;;;;;;;4.65;2.20;;;;;;;22.15;93.01;100362.16;5054365;28;20024;-51
2023/09/18 09:18:14;;;;;;;3.20;1.90;;;;;;;22.22;89.89;100370.28;5042179;28;20025;-51
2023/09/18 09:20:41;;;;;;;5.17;2.20;;;;;;;22.21;90.17;100366.72;5038519;28;20057;-51
2023/09/18 09:23:09;;;;;;;7.47;2.40;;;;;;;22.24;90.43;100373.59;5040192;28;20256;-51
2023/09/18 09:25:36;;;;;;;6.68;2.20;;;;;;;22.31;90.04;100377.19;5044305;28;20059;-51
2023/09/18 09:28:07;;;;;;;4.18;2.10;;;;;;;22.34;90.22;100382.19;5044523;28;20385;-51
2023/09/18 09:30:35;;;;;;;7.18;2.30;;;;;;;22.39;86.49;100385.09;5047796;28;20434;-50
2023/09/18 09:33:03;;;;;;;4.82;2.22;;;;;;;22.47;86.49;100376.78;5046848;28;20028;-52
2023/09/18 09:35:33;;;;;;;8.80;2.40;;;;;;;22.59;88.49;100384.28;5039054;28;20028;-52
2023/09/18 09:38:07;;;;;;;3.95;2.50;;;;;;;22.53;87.37;100378.66;5038668;28;20032;-50
2023/09/18 09:40:33;;;;;;;6.25;2.78;;;;;;;22.50;85.78;100392.59;5047785;28;20025;-50
2023/09/18 09:43:01;;;;;;;4.53;2.08;;;;;;;22.50;86.28;100378.25;5050269;28;20021;-50
2023/09/18 09:45:29;;;;;;;6.47;2.33;;;;;;;22.46;84.92;100380.50;5042802;28;20576;-51
2023/09/18 09:47:55;;;;;;;4.55;2.40;;;;;;;22.45;85.42;100364.47;5046572;28;20029;-51
2023/09/18 09:50:21;;;;;;;4.95;2.17;;;;;;;22.44;85.47;100371.78;5052550;28;20380;-51
2023/09/18 09:52:49;;;;;;;3.28;2.20;;;;;;;22.40;84.50;100373.25;5043219;28;20026;-51
2023/09/18 09:55:34;;;;;;;4.38;2.05;;;;;;;22.48;87.63;100377.59;5049592;28;20109;-52
2023/09/18 09:57:59;;;;;;;3.80;2.20;;;;;;;22.43;84.33;100378.25;5030465;28;20033;-50
2023/09/18 10:00:32;;;;;;;5.78;2.20;;;;;;;22.44;87.67;100379.06;5042788;28;20032;-50
2023/09/18 10:03:00;;;;;;;4.47;2.00;;;;;;;22.45;85.04;100380.72;5040816;28;20282;-50
2023/09/18 10:05:29;;;;;;;8.40;2.22;;;;;;;22.40;84.93;100386.78;5032307;28;20040;-52
2023/09/18 10:07:58;;;;;;;2.55;1.90;;;;;;;22.48;85.91;100394.69;5041026;28;20048;-50
2023/09/18 10:10:24;;;;;;;;;;;;;;;22.60;85.74;100396.75;5042861;28;20030;-50
2023/09/18 10:12:50;;;;;;;6.07;2.60;;;;;;;22.42;83.77;100398.22;5048585;28;20340;-51
2023/09/18 10:15:17;;;;;;;4.57;2.30;;;;;;;22.40;82.09;100407.56;5043564;28;20112;-50
2023/09/18 10:17:46;;;;;;;7.40;2.40;;;;;;;22.38;82.11;100399.66;5046623;28;20040;-50
2023/09/18 10:20:19;;;;;;;3.80;2.83;;;;;;;22.52;83.56;100401.34;5044616;28;20043;-52
2023/09/18 10:22:55;;;;;;;3.28;2.17;;;;;;;22.77;85.12;100392.59;5035983;28;20411;-51
2023/09/18 10:25:24;;;;;;;5.50;2.20;;;;;;;22.90;82.98;100397.19;5043601;28;20493;-51
2023/09/18 10:27:53;;;;;;;4.43;2.30;;;;;;;23.01;83.11;100407.34;5046266;28;20059;-51
2023/09/18 10:30:22;;;;;;;4.90;2.33;;;;;;;23.02;82.36;100409.03;5040778;28;20529;-51
2023/09/18 10:32:49;;;;;;;5.53;2.20;;;;;;;23.04;81.19;100403.41;5048167;28;20078;-51
2023/09/18 10:35:15;;;;;;;6.45;2.20;;;;;;;23.01;81.66;100407.34;5046825;28;20026;-50
2023/09/18 10:37:45;;;;;;;5.18;2.40;;;;;;;22.90;83.18;100394.47;5048052;28;20035;-50
2023/09/18 10:40:12;;;;;;;5.80;2.22;;;;;;;22.86;80.52;100409.47;5051553;28;20028;-50
2023/09/18 10:42:39;;;;;;;4.70;2.80;;;;;;;22.79;80.21;100412.19;5042857;28;20037;-50
2023/09/18 10:45:05;;;;;;;5.38;2.80;;;;;;;22.67;81.39;100413.84;5041425;28;20049;-51
2023/09/18 10:47:32;;;;;;;2.88;2.20;;;;;;;22.67;80.17;100411.16;5053913;28;20029;-50
2023/09/18 10:49:57;;;;;;;6.50;2.40;;;;;;;22.66;80.34;100398.66;5042021;28;20078;-50
2023/09/18 10:52:23;;;;;;;7.25;2.70;;;;;;;22.58;81.18;100399.66;5046081;28;20434;-50
2023/09/18 10:54:48;;;;;;;6.97;2.75;;;;;;;22.53;79.71;100394.91;5043075;28;20029;-50
2023/09/18 10:57:14;;;;;;;7.20;2.58;;;;;;;22.44;81.55;100388.00;5041155;28;20483;-50
2023/09/18 10:59:46;;;;;;;6.10;2.90;;;;;;;22.44;80.86;100392.59;5040191;28;20034;-51
2023/09/18 11:02:14;;;;;;;6.68;2.72;;;;;;;22.42;80.19;100389.28;5044352;28;20025;-50
2023/09/18 11:04:42;;;;;;;4.60;2.42;;;;;;;22.53;81.19;100384.06;5046014;28;20029;-51
2023/09/18 11:07:07;;;;;;;4.68;2.78;;;;;;;22.72;81.04;100379.69;5021541;28;20400;-51
2023/09/18 11:09:45;;;;;;;4.93;2.65;;;;;;;23.01;83.13;100387.56;5036332;28;20720;-52
2023/09/18 11:12:13;;;;;;;5.00;2.47;;;;;;;23.16;79.52;100384.66;5051764;28;20082;-50